Albert City, Iowa
Current Conditions -  °F | °C
As of 10:55 PM on Thursday 30 Oct 2014 (Local Time) from KSLB Reporting Station
Overcast Overcast  
Wind Chill: 24°   Ceiling: 2200
Heat Index: 36°   Visibility: 10mi
Dew Point: 27°   Wind: 22mph
Humidity: 70%   Direction: 350°N
Pressure: 30.36"   Gusts: 30mph
Location:  42.78°N, 94.95°W
Report Text: KSLB 310355Z AUTO 35019G26KT 10SM OVC022 02/M03 A3036 RMK AO2
Loading
Personal Weather Stations






























Interactive Weather Map
Tropical Storm Tracking
New forecast layout! Learn more

10-Day Weather Forecast

Advertisements
Track Severe Weather on mobile